Terminal Aerodrome Forecast
Issued by NWS

Home | Current Version | Previous Version | Text Only | Print | Product List | Glossary On
Versions: 1 2 3 4 5 6 7 8 9 10 11 12 13 14 15 16 17 18
000
FTUS43 KDLH 180520
TAFHIB
TAF
KHIB 180520Z 1806/1906 34007KT P6SM BKN015
     FM181300 33007KT 3SM BR BKN014
     FM181600 32009KT P6SM BKN019
     FM181900 32011G18KT P6SM BKN030=

USA.gov is the U.S. government's official web portal to all federal, state and local government web resources and services.